This is the latest recevied weather packets stored in our database for station/object KD5GAT-51. If no packets are shown the sender has not sent any weather packets the latest 10 day(s).
| Time | Temp. | Humidity | Pressure | Rain* | Wind** | Luminosity | Snow |
|---|---|---|---|---|---|---|---|
| 1777520431 | 20.56° C | 100% | 1014.1 hPa | - | - | - | - |
| 1777519531 | 20.56° C | 100% | 1014 hPa | - | - | - | - |
| 1777518631 | 21.11° C | 100% | 1014.2 hPa | - | - | - | - |
| 1777517730 | 21.11° C | 100% | 1014 hPa | - | - | - | - |
| 1777516830 | 21.11° C | 100% | 1013.9 hPa | - | - | - | - |
| 1777515930 | 21.67° C | 100% | 1013.3 hPa | - | - | - | - |
| 1777515030 | 21.67° C | 100% | 1013.3 hPa | - | - | - | - |
| 1777514130 | 22.22° C | 100% | 1012.9 hPa | - | - | - | - |
| 1777513230 | 22.78° C | 100% | 1012.7 hPa | - | - | - | - |
| 1777512329 | 23.33° C | 100% | 1012.5 hPa | - | - | - | - |
| 1777511429 | 24.44° C | 100% | 1012.6 hPa | - | - | - | - |
| 1777510529 | 26.67° C | 100% | 1012.3 hPa | - | - | - | - |
| 1777509633 | 27.22° C | 100% | 1011.8 hPa | - | - | - | - |
| 1777508729 | 27.78° C | 100% | 1012.1 hPa | - | - | - | - |
| 1777507829 | 28.89° C | 98% | 1011.2 hPa | - | - | - | - |
| 1777506929 | 29.44° C | 89% | 1011.4 hPa | - | - | - | - |
| 1777506028 | 30.56° C | 82% | 1011.2 hPa | - | - | - | - |
| 1777505128 | 32.78° C | 72% | 1010.4 hPa | - | - | - | - |
| 1777504228 | 32.78° C | 72% | 1010.6 hPa | - | - | - | - |
| 1777503328 | 32.78° C | 70% | 1011 hPa | - | - | - | - |
| 1777502428 | 33.89° C | 69% | 1011 hPa | - | - | - | - |
| 1777501528 | 33.33° C | 70% | 1011 hPa | - | - | - | - |
| 1777500627 | 33.33° C | 73% | 1011.3 hPa | - | - | - | - |
| 1777499735 | 32.22° C | 79% | 1011.3 hPa | - | - | - | - |
| 1777498835 | 31.67° C | 82% | 1011.5 hPa | - | - | - | - |
* Rain since midnight (hover to see other rain measurements)
** Current wind speed in m/s (hover to see current wind gust speed)